createdAt,value
2023-09-21T00:04:23.634Z,61.79
2023-09-21T00:09:26.711Z,61.54
2023-09-21T00:14:29.700Z,61.53
2023-09-21T00:19:32.709Z,61.14
2023-09-21T00:24:38.172Z,60.34
2023-09-21T00:29:42.233Z,61.06
2023-09-21T00:34:45.268Z,60.91
2023-09-21T00:39:49.153Z,60.94
2023-09-21T00:44:53.290Z,60.48
2023-09-21T00:49:56.499Z,60.44
2023-09-21T00:55:00.109Z,59.11
2023-09-21T01:00:06.034Z,63.61
2023-09-21T01:05:19.335Z,65.07
2023-09-21T01:10:24.512Z,62.89
2023-09-21T01:15:27.806Z,61.95
2023-09-21T01:20:33.728Z,61.80
2023-09-21T01:25:40.436Z,61.69
2023-09-21T01:30:43.372Z,60.91
2023-09-21T01:35:47.031Z,60.65
2023-09-21T01:40:50.140Z,59.24
2023-09-21T01:45:53.456Z,62.68
2023-09-21T01:50:59.245Z,64.07
2023-09-21T02:01:46.866Z,61.50
2023-09-21T02:06:49.806Z,61.35
2023-09-21T02:11:52.748Z,61.05
2023-09-21T02:16:56.464Z,60.90
2023-09-21T02:21:59.445Z,61.02
2023-09-21T02:27:02.400Z,61.25
2023-09-21T02:32:05.458Z,61.16
2023-09-21T02:37:08.770Z,60.94
2023-09-21T02:42:12.228Z,61.10
2023-09-21T02:47:15.401Z,61.27
2023-09-21T02:52:18.404Z,60.78
2023-09-21T02:57:22.049Z,61.01
2023-09-21T03:02:25.610Z,61.65
2023-09-21T03:07:28.657Z,61.95
2023-09-21T03:12:31.661Z,61.79
2023-09-21T03:17:40.212Z,61.81
2023-09-21T03:22:43.310Z,61.38
2023-09-21T03:27:50.004Z,61.63
2023-09-21T03:32:53.743Z,61.43
2023-09-21T03:37:57.181Z,61.23
2023-09-21T03:43:01.379Z,61.14
2023-09-21T03:48:07.560Z,61.23
2023-09-21T03:53:11.423Z,61.33
2023-09-21T03:58:16.376Z,61.07
2023-09-21T04:03:19.980Z,61.33
2023-09-21T04:08:23.289Z,61.48
2023-09-21T04:13:26.810Z,61.42
2023-09-21T04:18:29.896Z,61.43
2023-09-21T04:23:33.750Z,61.67
2023-09-21T04:28:36.646Z,62.34
2023-09-21T04:33:39.678Z,62.44
2023-09-21T04:38:44.141Z,62.43
2023-09-21T04:43:47.853Z,62.59
2023-09-21T04:48:50.880Z,62.69
2023-09-21T04:53:53.948Z,61.89
2023-09-21T04:58:57.441Z,61.14
2023-09-21T05:04:00.997Z,59.84
2023-09-21T05:09:04.605Z,61.02
2023-09-21T05:14:09.125Z,62.21
2023-09-21T05:19:13.868Z,59.67
2023-09-21T05:24:16.937Z,61.52
2023-09-21T05:29:23.990Z,61.46
2023-09-21T05:34:29.722Z,57.65
2023-09-21T05:39:32.801Z,59.38
2023-09-21T05:44:35.784Z,60.35
2023-09-21T05:49:39.195Z,58.65
2023-09-21T05:54:43.923Z,57.87
2023-09-21T05:59:47.205Z,57.76
2023-09-21T06:04:50.256Z,57.47
2023-09-21T06:09:53.378Z,56.12
2023-09-21T06:14:59.302Z,55.65
2023-09-21T06:20:02.459Z,53.78
2023-09-21T06:25:08.015Z,52.51
2023-09-21T06:30:13.724Z,51.67
2023-09-21T06:35:16.888Z,50.44
2023-09-21T06:40:19.740Z,48.84
2023-09-21T06:45:22.837Z,48.95
2023-09-21T06:50:25.916Z,47.96
2023-09-21T06:55:29.739Z,46.75
2023-09-21T07:00:32.828Z,46.23
2023-09-21T07:05:35.961Z,45.25
2023-09-21T07:10:39.421Z,44.32
2023-09-21T07:15:42.799Z,43.98
2023-09-21T07:20:46.040Z,42.78
2023-09-21T07:25:49.117Z,41.55
2023-09-21T07:30:56.487Z,40.60
2023-09-21T07:35:59.610Z,40.65
2023-09-21T07:41:04.553Z,39.90
2023-09-21T07:46:07.596Z,38.45
2023-09-21T07:51:10.693Z,37.88
2023-09-21T07:56:15.483Z,37.60
2023-09-21T08:01:18.892Z,37.11
2023-09-21T08:06:24.178Z,34.26
2023-09-21T08:11:27.690Z,33.14
2023-09-21T08:16:31.193Z,33.06
2023-09-21T08:21:35.224Z,32.20
2023-09-21T08:26:38.825Z,32.66
2023-09-21T08:31:42.792Z,31.77
2023-09-21T08:36:46.272Z,30.42
2023-09-21T08:41:51.311Z,30.91
2023-09-21T08:46:56.378Z,30.60
2023-09-21T08:52:02.197Z,28.54
2023-09-21T08:57:06.244Z,28.59
2023-09-21T09:02:16.694Z,28.66
2023-09-21T09:07:20.041Z,28.52
2023-09-21T09:12:24.983Z,27.92
2023-09-21T09:17:31.168Z,28.34
2023-09-21T09:22:39.655Z,28.88
2023-09-21T09:27:43.884Z,29.06
2023-09-21T09:32:48.682Z,29.32
2023-09-21T09:37:51.641Z,28.92
2023-09-21T09:42:58.393Z,29.54
2023-09-21T09:48:05.517Z,28.61
2023-09-21T09:53:13.356Z,28.78
2023-09-21T09:58:16.993Z,28.74
2023-09-21T10:03:20.895Z,28.52
2023-09-21T10:08:27.375Z,27.24
2023-09-21T10:13:31.553Z,27.70
2023-09-21T10:18:39.526Z,26.99
2023-09-21T10:24:04.617Z,26.88
2023-09-21T10:29:08.716Z,27.16
2023-09-21T10:34:14.120Z,27.52
2023-09-21T10:39:27.767Z,26.97
2023-09-21T10:45:01.311Z,26.67
2023-09-21T10:50:08.037Z,27.21
2023-09-21T10:55:13.552Z,27.03
2023-09-21T11:00:20.260Z,26.90
2023-09-21T11:05:23.758Z,26.84
2023-09-21T11:10:27.180Z,25.49
2023-09-21T11:15:33.779Z,25.74
2023-09-21T11:20:37.417Z,26.05
2023-09-21T11:25:40.268Z,26.13
2023-09-21T11:30:43.782Z,25.96
2023-09-21T11:35:46.823Z,25.62
2023-09-21T11:40:53.592Z,26.06
2023-09-21T11:45:56.587Z,25.26
2023-09-21T11:51:00.660Z,24.89
2023-09-21T11:56:03.938Z,25.27
2023-09-21T12:01:06.964Z,25.71
2023-09-21T12:06:13.077Z,25.72
2023-09-21T12:11:17.607Z,26.16
2023-09-21T12:16:20.691Z,26.39
2023-09-21T12:21:23.816Z,25.94
2023-09-21T12:26:27.132Z,25.44
2023-09-21T12:31:41.113Z,25.70
2023-09-21T12:36:53.455Z,25.69
2023-09-21T12:41:56.863Z,25.67
2023-09-21T12:47:00.851Z,26.10
2023-09-21T12:52:05.242Z,25.64
2023-09-21T12:57:09.090Z,25.72
2023-09-21T13:02:13.695Z,25.93
2023-09-21T13:07:16.862Z,25.51
2023-09-21T13:12:20.631Z,25.52
2023-09-21T13:17:25.030Z,25.63
2023-09-21T13:22:28.342Z,25.77
2023-09-21T13:27:31.412Z,25.77
2023-09-21T13:32:34.592Z,25.88
2023-09-21T13:37:37.562Z,25.70
2023-09-21T13:42:41.058Z,25.60
2023-09-21T13:47:45.181Z,25.80
2023-09-21T13:52:48.112Z,26.01
2023-09-21T13:57:51.099Z,26.29
2023-09-21T14:02:55.489Z,26.79
2023-09-21T14:07:59.206Z,27.19
2023-09-21T14:13:03.253Z,27.34
2023-09-21T14:18:06.975Z,27.13
2023-09-21T14:23:10.069Z,27.16
2023-09-21T14:28:13.373Z,27.41
2023-09-21T14:33:18.232Z,27.91
2023-09-21T14:38:21.742Z,28.82
2023-09-21T14:43:24.793Z,29.62
2023-09-21T14:48:27.883Z,30.22
2023-09-21T14:53:31.585Z,30.79
2023-09-21T14:58:34.721Z,30.87
2023-09-21T15:03:38.022Z,30.75
2023-09-21T15:08:41.129Z,30.83
2023-09-21T15:13:44.646Z,31.24
2023-09-21T15:18:48.165Z,32.12
2023-09-21T15:23:51.882Z,32.65
2023-09-21T15:28:55.190Z,33.36
2023-09-21T15:33:59.551Z,34.08
2023-09-21T15:39:03.279Z,34.49
2023-09-21T15:44:06.973Z,35.06
2023-09-21T15:49:10.260Z,35.80
2023-09-21T15:54:13.690Z,36.97
2023-09-21T15:59:17.123Z,38.14
2023-09-21T16:04:20.837Z,39.21
2023-09-21T16:09:24.075Z,40.29
2023-09-21T16:14:27.472Z,41.68
2023-09-21T16:19:31.537Z,43.22
2023-09-21T16:24:35.362Z,45.37
2023-09-21T16:29:38.950Z,47.06
2023-09-21T16:34:42.427Z,48.61
2023-09-21T16:39:46.141Z,50.06
2023-09-21T16:44:49.546Z,51.09
2023-09-21T16:49:53.749Z,51.67
2023-09-21T16:54:57.683Z,52.13
2023-09-21T17:00:01.013Z,53.14
2023-09-21T17:05:05.332Z,53.64
2023-09-21T17:10:09.794Z,54.42
2023-09-21T17:15:15.368Z,54.93
2023-09-21T17:20:19.163Z,55.22
2023-09-21T17:25:23.418Z,55.90
2023-09-21T17:30:26.869Z,56.44
2023-09-21T17:35:30.350Z,57.62
2023-09-21T17:40:33.885Z,58.08
2023-09-21T17:45:37.246Z,58.83
2023-09-21T17:50:44.780Z,59.77
2023-09-21T17:55:51.064Z,59.62
2023-09-21T18:00:54.628Z,60.60
2023-09-21T18:05:58.572Z,61.00
2023-09-21T18:11:03.620Z,61.43
2023-09-21T18:16:07.180Z,62.11
2023-09-21T18:21:10.766Z,60.11
2023-09-21T18:26:15.869Z,58.32
2023-09-21T18:31:19.840Z,60.49
2023-09-21T18:36:23.432Z,61.74
2023-09-21T18:41:27.076Z,61.86
2023-09-21T18:46:31.545Z,58.85
2023-09-21T18:51:35.070Z,60.33
2023-09-21T18:56:50.697Z,61.70
2023-09-21T19:01:58.676Z,61.54
2023-09-21T19:07:02.259Z,58.55
2023-09-21T19:12:08.268Z,60.83
2023-09-21T19:17:11.338Z,62.23
2023-09-21T19:22:16.708Z,59.34
2023-09-21T19:27:20.467Z,59.54
2023-09-21T19:32:23.732Z,62.14
2023-09-21T19:37:27.658Z,60.36
2023-09-21T19:42:30.948Z,60.01
2023-09-21T19:47:34.104Z,62.50
2023-09-21T19:52:37.166Z,59.85
2023-09-21T19:57:45.456Z,59.97
2023-09-21T20:02:51.501Z,62.31
2023-09-21T20:07:54.621Z,59.31
2023-09-21T20:12:57.611Z,59.47
2023-09-21T20:18:00.803Z,62.09
2023-09-21T20:23:03.835Z,61.23
2023-09-21T20:28:07.048Z,58.46
2023-09-21T20:33:10.110Z,60.72
2023-09-21T20:38:13.782Z,62.45
2023-09-21T20:43:17.711Z,59.49
2023-09-21T20:48:20.746Z,60.87
2023-09-21T20:53:23.558Z,62.03
2023-09-21T20:58:26.524Z,59.16
2023-09-21T21:03:29.653Z,61.52
2023-09-21T21:08:32.849Z,62.04
2023-09-21T21:13:35.860Z,59.40
2023-09-21T21:18:39.033Z,61.19
2023-09-21T21:23:42.543Z,62.19
2023-09-21T21:28:45.628Z,59.45
2023-09-21T21:33:48.665Z,61.46
2023-09-21T21:38:52.141Z,62.19
2023-09-21T21:43:56.357Z,59.89
2023-09-21T21:48:59.457Z,61.38
2023-09-21T21:54:02.675Z,62.63
2023-09-21T21:59:06.301Z,60.25
2023-09-21T22:04:09.341Z,60.15
2023-09-21T22:09:12.446Z,62.71
2023-09-21T22:14:15.674Z,60.83
2023-09-21T22:19:18.732Z,59.89
2023-09-21T22:24:21.782Z,62.65
2023-09-21T22:29:25.050Z,60.94
2023-09-21T22:34:27.955Z,59.62
2023-09-21T22:39:30.878Z,62.88
2023-09-21T22:44:33.751Z,61.50
2023-09-21T22:49:36.977Z,60.07
2023-09-21T22:54:40.660Z,60.08
2023-09-21T22:59:44.627Z,62.90
2023-09-21T23:04:51.950Z,61.32
2023-09-21T23:09:55.388Z,60.29
2023-09-21T23:14:58.365Z,60.33
2023-09-21T23:20:01.367Z,60.23
2023-09-21T23:25:05.360Z,60.50
2023-09-21T23:30:10.024Z,60.39
2023-09-21T23:35:13.462Z,60.58
2023-09-21T23:40:16.476Z,61.16
2023-09-21T23:45:20.235Z,61.08
2023-09-21T23:50:23.919Z,60.82
2023-09-21T23:55:26.922Z,59.83
